createdAt,value
2023-07-19T00:18:04.145Z,129
2023-07-19T00:38:04.081Z,127
2023-07-19T00:58:04.072Z,127
2023-07-19T01:18:04.119Z,126
2023-07-19T01:38:04.084Z,129
2023-07-19T01:58:04.096Z,127
2023-07-19T02:18:04.098Z,124
2023-07-19T02:38:04.084Z,127
2023-07-19T02:58:04.066Z,123
2023-07-19T03:18:04.134Z,127
2023-07-19T03:38:04.096Z,127
2023-07-19T03:58:04.052Z,129
2023-07-19T04:18:04.149Z,129
2023-07-19T04:38:04.052Z,131
2023-07-19T04:58:04.073Z,132
2023-07-19T05:18:04.149Z,133
2023-07-19T05:38:04.066Z,134
2023-07-19T05:58:04.044Z,137
2023-07-19T06:18:04.097Z,138
2023-07-19T06:38:04.044Z,137
2023-07-19T06:58:04.055Z,135
2023-07-19T07:18:04.042Z,134
2023-07-19T07:38:04.015Z,133
2023-07-19T07:58:04.002Z,129
2023-07-19T08:18:04.132Z,125
2023-07-19T08:38:04.003Z,129
2023-07-19T08:58:03.991Z,130
2023-07-19T09:18:04.031Z,131
2023-07-19T09:38:03.984Z,133
2023-07-19T09:58:04.001Z,134
2023-07-19T10:18:04.037Z,134
2023-07-19T10:38:05.845Z,135
2023-07-19T10:58:03.938Z,131
2023-07-19T11:18:03.952Z,128
2023-07-19T11:38:04.005Z,127
2023-07-19T11:58:04.011Z,127
2023-07-19T12:18:03.950Z,126
2023-07-19T12:38:03.893Z,125
2023-07-19T12:58:03.907Z,119
2023-07-19T13:18:03.980Z,121
2023-07-19T13:38:07.038Z,113
2023-07-19T13:58:03.886Z,114
2023-07-19T14:18:03.903Z,97
2023-07-19T14:38:03.852Z,108
2023-07-19T14:58:03.857Z,96
2023-07-19T15:18:03.899Z,102
2023-07-19T15:38:03.820Z,109
2023-07-19T15:58:03.797Z,109
2023-07-19T16:18:03.335Z,106
2023-07-19T16:38:03.778Z,112
2023-07-19T16:58:03.888Z,114
2023-07-19T17:18:03.989Z,123
2023-07-19T17:58:03.731Z,133
2023-07-19T18:18:03.765Z,135
2023-07-19T18:38:03.742Z,136
2023-07-19T18:58:03.751Z,137
2023-07-19T19:18:03.735Z,136
2023-07-19T19:38:03.705Z,137
2023-07-19T19:58:03.735Z,137
2023-07-19T20:58:03.738Z,135
2023-07-19T21:18:03.767Z,131
2023-07-19T21:38:03.682Z,133
2023-07-19T21:58:03.660Z,131
2023-07-19T22:18:03.689Z,133
2023-07-19T22:38:03.670Z,131
2023-07-19T22:58:03.660Z,134
2023-07-19T23:18:03.686Z,134
2023-07-19T23:38:03.636Z,133
2023-07-19T23:58:03.663Z,134
